sensor_id;sensor_type;location;lat;lon;timestamp;pressure;altitude;pressure_sealevel;temperature;humidity
5780;BME280;2916;49.798;10.022;2023-03-13T15:43:22;148707.28;;;18.00;61.73
5780;BME280;2916;49.798;10.022;2023-03-13T15:45:51;148750.91;;;18.18;60.92
5780;BME280;2916;49.798;10.022;2023-03-13T15:48:21;148733.44;;;18.11;61.14
5780;BME280;2916;49.798;10.022;2023-03-13T15:50:50;148712.25;;;18.02;61.30
5780;BME280;2916;49.798;10.022;2023-03-13T15:53:21;148682.31;;;17.90;61.44
5780;BME280;2916;49.798;10.022;2023-03-13T15:55:51;148634.91;;;17.71;61.06
5780;BME280;2916;49.798;10.022;2023-03-13T15:58:18;148687.34;;;17.92;60.64
5780;BME280;2916;49.798;10.022;2023-03-13T16:00:48;148688.56;;;17.93;61.59
5780;BME280;2916;49.798;10.022;2023-03-13T16:03:18;148694.78;;;17.95;61.79
5780;BME280;2916;49.798;10.022;2023-03-13T16:05:47;148652.41;;;17.78;62.20
5780;BME280;2916;49.798;10.022;2023-03-13T16:08:16;148647.41;;;17.76;62.51
5780;BME280;2916;49.798;10.022;2023-03-13T16:10:45;148637.38;;;17.72;61.91
5780;BME280;2916;49.798;10.022;2023-03-13T16:13:12;148577.53;;;17.47;61.91
5780;BME280;2916;49.798;10.022;2023-03-13T16:15:39;148627.41;;;17.67;61.59
5780;BME280;2916;49.798;10.022;2023-03-13T16:18:13;148599.97;;;17.56;61.67
5780;BME280;2916;49.798;10.022;2023-03-13T16:20:42;148550.09;;;17.36;61.93
5780;BME280;2916;49.798;10.022;2023-03-13T16:23:09;148560.09;;;17.40;62.18
5780;BME280;2916;49.798;10.022;2023-03-13T16:25:37;148565.09;;;17.42;62.12
5780;BME280;2916;49.798;10.022;2023-03-13T16:28:05;148545.16;;;17.34;62.72
5780;BME280;2916;49.798;10.022;2023-03-13T16:30:34;148538.91;;;17.31;62.83
5780;BME280;2916;49.798;10.022;2023-03-13T16:33:01;148528.94;;;17.27;62.79
5780;BME280;2916;49.798;10.022;2023-03-13T16:35:29;148517.72;;;17.23;62.99
5780;BME280;2916;49.798;10.022;2023-03-13T16:37:57;148511.47;;;17.20;62.85
5780;BME280;2916;49.798;10.022;2023-03-13T16:40:28;148482.81;;;17.08;63.34
5780;BME280;2916;49.798;10.022;2023-03-13T16:42:56;148481.56;;;17.08;63.45
5780;BME280;2916;49.798;10.022;2023-03-13T16:45:24;148467.88;;;17.02;63.41
5780;BME280;2916;49.798;10.022;2023-03-13T16:47:51;148455.38;;;16.97;63.83
5780;BME280;2916;49.798;10.022;2023-03-13T16:50:25;148457.91;;;16.98;63.83
5780;BME280;2916;49.798;10.022;2023-03-13T16:52:55;148428.00;;;16.86;64.83
5780;BME280;2916;49.798;10.022;2023-03-13T16:55:24;148410.53;;;16.79;64.57
5780;BME280;2916;49.798;10.022;2023-03-13T16:57:53;148415.50;;;16.81;64.69
5780;BME280;2916;49.798;10.022;2023-03-13T17:00:23;148385.56;;;16.68;65.68
5780;BME280;2916;49.798;10.022;2023-03-13T17:02:51;148233.56;;;16.06;64.90
5780;BME280;2916;49.798;10.022;2023-03-13T17:05:19;148046.75;;;15.30;61.29
5780;BME280;2916;49.798;10.022;2023-03-13T17:07:49;147991.97;;;15.07;62.74
5780;BME280;2916;49.798;10.022;2023-03-13T17:10:21;147907.31;;;14.72;62.54
5780;BME280;2916;49.798;10.022;2023-03-13T17:12:49;147871.22;;;14.58;62.80
5780;BME280;2916;49.798;10.022;2023-03-13T17:15:18;147845.06;;;14.47;65.77
5780;BME280;2916;49.798;10.022;2023-03-13T17:17:48;147797.78;;;14.28;67.28
5780;BME280;2916;49.798;10.022;2023-03-13T17:20:20;147795.31;;;14.27;68.72
5780;BME280;2916;49.798;10.022;2023-03-13T17:22:47;147767.94;;;14.15;69.64
5780;BME280;2916;49.798;10.022;2023-03-13T17:25:15;147744.28;;;14.06;70.80
5780;BME280;2916;49.798;10.022;2023-03-13T17:27:44;147716.91;;;13.94;71.31
5780;BME280;2916;49.798;10.022;2023-03-13T17:30:20;147702.00;;;13.88;72.13
5780;BME280;2916;49.798;10.022;2023-03-13T17:32:48;147603.78;;;13.48;72.90
5780;BME280;2916;49.798;10.022;2023-03-13T17:35:17;147663.47;;;13.72;73.84
5780;BME280;2916;49.798;10.022;2023-03-13T17:37:44;147665.94;;;13.73;74.95
5780;BME280;2916;49.798;10.022;2023-03-13T17:40:18;147588.84;;;13.42;76.22
5780;BME280;2916;49.798;10.022;2023-03-13T17:42:48;147566.47;;;13.33;78.25
5780;BME280;2916;49.798;10.022;2023-03-13T17:45:16;147536.59;;;13.20;80.36
5780;BME280;2916;49.798;10.022;2023-03-13T17:47:44;147510.47;;;13.10;81.63
5780;BME280;2916;49.798;10.022;2023-03-13T17:50:17;147463.25;;;12.90;83.11
5780;BME280;2916;49.798;10.022;2023-03-13T17:52:45;147452.06;;;12.86;84.00
5780;BME280;2916;49.798;10.022;2023-03-13T17:55:12;147375.00;;;12.54;85.34
5780;BME280;2916;49.798;10.022;2023-03-13T17:57:40;147408.53;;;12.68;87.51
5780;BME280;2916;49.798;10.022;2023-03-13T18:00:21;147362.56;;;12.49;89.31
5780;BME280;2916;49.798;10.022;2023-03-13T18:02:48;147341.44;;;12.40;90.51
5780;BME280;2916;49.798;10.022;2023-03-13T18:05:16;147350.16;;;12.44;90.81
5780;BME280;2916;49.798;10.022;2023-03-13T18:07:44;147345.19;;;12.42;91.18
5780;BME280;2916;49.798;10.022;2023-03-13T18:10:22;147329.03;;;12.35;91.30
5780;BME280;2916;49.798;10.022;2023-03-13T18:12:50;147310.38;;;12.27;91.79
5780;BME280;2916;49.798;10.022;2023-03-13T18:15:21;147165.03;;;11.68;91.66
5780;BME280;2916;49.798;10.022;2023-03-13T18:17:49;147310.38;;;12.27;90.82
5780;BME280;2916;49.798;10.022;2023-03-13T18:20:20;147273.13;;;12.12;90.23
5780;BME280;2916;49.798;10.022;2023-03-13T18:22:48;147295.47;;;12.21;90.37
5780;BME280;2916;49.798;10.022;2023-03-13T18:25:15;147295.47;;;12.21;89.88
5780;BME280;2916;49.798;10.022;2023-03-13T18:27:42;147293.00;;;12.20;89.98
5780;BME280;2916;49.798;10.022;2023-03-13T18:30:16;147275.59;;;12.13;90.17
5780;BME280;2916;49.798;10.022;2023-03-13T18:35:14;147274.34;;;12.13;90.58
5780;BME280;2916;49.798;10.022;2023-03-13T18:37:44;147274.34;;;12.13;90.10
5780;BME280;2916;49.798;10.022;2023-03-13T18:40:24;147286.75;;;12.18;89.71
5780;BME280;2916;49.798;10.022;2023-03-13T18:42:51;147302.94;;;12.24;89.19
5780;BME280;2916;49.798;10.022;2023-03-13T18:45:21;147264.41;;;12.09;90.49
5780;BME280;2916;49.798;10.022;2023-03-13T18:47:51;147253.25;;;12.04;91.04
5780;BME280;2916;49.798;10.022;2023-03-13T18:50:22;147220.97;;;11.91;93.21
5780;BME280;2916;49.798;10.022;2023-03-13T18:52:51;147202.34;;;11.83;94.83
5780;BME280;2916;49.798;10.022;2023-03-13T18:55:20;147191.06;;;11.78;95.89
5780;BME280;2916;49.798;10.022;2023-03-13T18:57:48;147208.50;;;11.86;95.88
5780;BME280;2916;49.798;10.022;2023-03-13T19:00:21;147230.91;;;11.95;95.89
5780;BME280;2916;49.798;10.022;2023-03-13T19:02:51;147237.09;;;11.97;95.25
5780;BME280;2916;49.798;10.022;2023-03-13T19:05:18;147212.25;;;11.87;97.31
5780;BME280;2916;49.798;10.022;2023-03-13T19:07:47;147198.53;;;11.82;98.35
5780;BME280;2916;49.798;10.022;2023-03-13T19:10:21;147183.66;;;11.75;97.65
5780;BME280;2916;49.798;10.022;2023-03-13T19:12:50;147187.34;;;11.77;98.32
5780;BME280;2916;49.798;10.022;2023-03-13T19:15:18;147173.72;;;11.71;99.35
5780;BME280;2916;49.798;10.022;2023-03-13T19:17:46;147188.59;;;11.77;99.02
5780;BME280;2916;49.798;10.022;2023-03-13T19:20:18;147206.03;;;11.85;98.02
5780;BME280;2916;49.798;10.022;2023-03-13T19:22:46;147193.59;;;11.79;99.13
5780;BME280;2916;49.798;10.022;2023-03-13T19:25:14;147141.41;;;11.58;100.00
5780;BME280;2916;49.798;10.022;2023-03-13T19:27:42;147168.72;;;11.69;100.00
5780;BME280;2916;49.798;10.022;2023-03-13T19:30:15;147157.56;;;11.65;100.00
5780;BME280;2916;49.798;10.022;2023-03-13T19:32:43;147163.78;;;11.67;100.00
5780;BME280;2916;49.798;10.022;2023-03-13T19:35:10;147166.25;;;11.68;100.00
5780;BME280;2916;49.798;10.022;2023-03-13T19:37:39;147146.41;;;11.60;100.00
5780;BME280;2916;49.798;10.022;2023-03-13T19:40:16;147165.03;;;11.68;100.00
5780;BME280;2916;49.798;10.022;2023-03-13T19:42:44;147153.84;;;11.63;100.00
5780;BME280;2916;49.798;10.022;2023-03-13T19:45:12;147166.25;;;11.68;100.00
5780;BME280;2916;49.798;10.022;2023-03-13T19:47:42;147160.03;;;11.66;100.00
5780;BME280;2916;49.798;10.022;2023-03-13T19:50:17;147162.50;;;11.67;100.00
5780;BME280;2916;49.798;10.022;2023-03-13T19:52:45;147158.78;;;11.65;100.00
5780;BME280;2916;49.798;10.022;2023-03-13T19:55:13;147155.09;;;11.64;100.00
5780;BME280;2916;49.798;10.022;2023-03-13T19:57:40;147156.31;;;11.64;100.00
5780;BME280;2916;49.798;10.022;2023-03-13T20:00:18;147171.19;;;11.70;100.00
5780;BME280;2916;49.798;10.022;2023-03-13T20:02:45;147166.25;;;11.68;100.00
5780;BME280;2916;49.798;10.022;2023-03-13T20:05:13;147173.72;;;11.71;100.00
5780;BME280;2916;49.798;10.022;2023-03-13T20:07:40;147147.63;;;11.61;100.00
5780;BME280;2916;49.798;10.022;2023-03-13T20:10:10;147140.16;;;11.58;100.00
5780;BME280;2916;49.798;10.022;2023-03-13T20:12:37;147130.22;;;11.53;100.00
5780;BME280;2916;49.798;10.022;2023-03-13T20:15:06;147138.94;;;11.57;100.00
5780;BME280;2916;49.798;10.022;2023-03-13T20:17:34;147124.00;;;11.51;100.00
5780;BME280;2916;49.798;10.022;2023-03-13T20:20:02;147104.13;;;11.43;100.00
5780;BME280;2916;49.798;10.022;2023-03-13T20:22:33;147022.22;;;11.09;100.00
5780;BME280;2916;49.798;10.022;2023-03-13T20:25:00;147095.44;;;11.39;100.00
5780;BME280;2916;49.798;10.022;2023-03-13T20:27:29;147053.25;;;11.22;100.00
5780;BME280;2916;49.798;10.022;2023-03-13T20:29:56;147033.41;;;11.14;100.00
5780;BME280;2916;49.798;10.022;2023-03-13T20:32:24;147025.94;;;11.11;100.00
5780;BME280;2916;49.798;10.022;2023-03-13T20:34:51;147014.78;;;11.06;100.00
5780;BME280;2916;49.798;10.022;2023-03-13T20:37:19;146965.13;;;10.86;100.00
5780;BME280;2916;49.798;10.022;2023-03-13T20:39:46;147034.63;;;11.14;100.00
5780;BME280;2916;49.798;10.022;2023-03-13T20:42:14;147022.22;;;11.09;100.00
5780;BME280;2916;49.798;10.022;2023-03-13T20:44:43;147022.22;;;11.09;100.00
5780;BME280;2916;49.798;10.022;2023-03-13T20:47:11;147028.41;;;11.12;100.00
5780;BME280;2916;49.798;10.022;2023-03-13T20:49:38;147019.72;;;11.08;100.00
5780;BME280;2916;49.798;10.022;2023-03-13T20:52:06;146963.91;;;10.85;100.00
5780;BME280;2916;49.798;10.022;2023-03-13T20:54:34;147009.78;;;11.04;100.00
5780;BME280;2916;49.798;10.022;2023-03-13T20:57:02;147001.13;;;11.00;100.00
5780;BME280;2916;49.798;10.022;2023-03-13T20:59:29;146971.31;;;10.88;100.00
5780;BME280;2916;49.798;10.022;2023-03-13T21:01:58;146960.16;;;10.84;100.00
5780;BME280;2916;49.798;10.022;2023-03-13T21:04:26;146972.59;;;10.89;100.00
5780;BME280;2916;49.798;10.022;2023-03-13T21:06:53;146947.75;;;10.78;100.00
5780;BME280;2916;49.798;10.022;2023-03-13T21:09:22;146931.59;;;10.72;100.00
5780;BME280;2916;49.798;10.022;2023-03-13T21:11:49;146910.50;;;10.63;100.00
5780;BME280;2916;49.798;10.022;2023-03-13T21:14:18;146908.03;;;10.62;100.00
5780;BME280;2916;49.798;10.022;2023-03-13T21:16:46;146890.66;;;10.55;100.00
5780;BME280;2916;49.798;10.022;2023-03-13T21:19:14;146872.03;;;10.47;100.00
5780;BME280;2916;49.798;10.022;2023-03-13T21:21:42;146857.13;;;10.41;100.00
5780;BME280;2916;49.798;10.022;2023-03-13T21:24:09;146860.88;;;10.43;100.00
5780;BME280;2916;49.798;10.022;2023-03-13T21:26:37;146853.44;;;10.40;100.00
5780;BME280;2916;49.798;10.022;2023-03-13T21:29:04;146843.50;;;10.36;100.00
5780;BME280;2916;49.798;10.022;2023-03-13T21:31:34;146838.56;;;10.34;100.00
5780;BME280;2916;49.798;10.022;2023-03-13T21:34:01;146811.22;;;10.22;100.00
5780;BME280;2916;49.798;10.022;2023-03-13T21:36:30;146796.31;;;10.16;100.00
5780;BME280;2916;49.798;10.022;2023-03-13T21:38:57;146776.47;;;10.08;100.00
5780;BME280;2916;49.798;10.022;2023-03-13T21:41:24;146764.06;;;10.03;100.00
5780;BME280;2916;49.798;10.022;2023-03-13T21:43:51;146751.63;;;9.98;100.00
5780;BME280;2916;49.798;10.022;2023-03-13T21:46:21;146721.88;;;9.86;100.00
5780;BME280;2916;49.798;10.022;2023-03-13T21:48:49;146729.31;;;9.89;100.00
5780;BME280;2916;49.798;10.022;2023-03-13T21:51:17;146714.47;;;9.82;100.00
5780;BME280;2916;49.798;10.022;2023-03-13T21:53:45;146705.78;;;9.79;100.00
5780;BME280;2916;49.798;10.022;2023-03-13T21:56:12;146694.56;;;9.74;100.00
5780;BME280;2916;49.798;10.022;2023-03-13T21:58:42;146693.34;;;9.74;100.00
5780;BME280;2916;49.798;10.022;2023-03-13T22:01:10;146641.28;;;9.52;100.00
5780;BME280;2916;49.798;10.022;2023-03-13T22:03:38;146689.63;;;9.72;100.00
5780;BME280;2916;49.798;10.022;2023-03-13T22:06:11;146689.63;;;9.72;100.00
5780;BME280;2916;49.798;10.022;2023-03-13T22:08:39;146687.16;;;9.71;100.00
5780;BME280;2916;49.798;10.022;2023-03-13T22:11:08;146674.72;;;9.66;100.00
5780;BME280;2916;49.798;10.022;2023-03-13T22:13:35;146672.28;;;9.65;100.00
5780;BME280;2916;49.798;10.022;2023-03-13T22:16:03;146654.91;;;9.58;100.00
5780;BME280;2916;49.798;10.022;2023-03-13T22:18:31;146657.41;;;9.59;100.00
5780;BME280;2916;49.798;10.022;2023-03-13T22:20:59;146659.88;;;9.60;100.00
5780;BME280;2916;49.798;10.022;2023-03-13T22:23:26;146615.22;;;9.42;100.00
5780;BME280;2916;49.798;10.022;2023-03-13T22:25:55;146595.41;;;9.33;100.00
5780;BME280;2916;49.798;10.022;2023-03-13T22:28:25;146635.06;;;9.50;100.00
5780;BME280;2916;49.798;10.022;2023-03-13T22:30:52;146642.50;;;9.53;100.00
5780;BME280;2916;49.798;10.022;2023-03-13T22:33:19;146632.59;;;9.49;100.00
5780;BME280;2916;49.798;10.022;2023-03-13T22:35:49;146625.16;;;9.46;100.00
5780;BME280;2916;49.798;10.022;2023-03-13T22:38:18;146625.16;;;9.46;100.00
5780;BME280;2916;49.798;10.022;2023-03-13T22:40:46;146632.59;;;9.49;100.00
5780;BME280;2916;49.798;10.022;2023-03-13T22:43:13;146616.47;;;9.42;100.00
5780;BME280;2916;49.798;10.022;2023-03-13T22:45:42;146628.91;;;9.47;100.00
5780;BME280;2916;49.798;10.022;2023-03-13T22:48:09;146630.13;;;9.48;100.00
5780;BME280;2916;49.798;10.022;2023-03-13T22:50:36;146637.53;;;9.51;100.00
5780;BME280;2916;49.798;10.022;2023-03-13T22:53:03;146635.06;;;9.50;100.00
5780;BME280;2916;49.798;10.022;2023-03-13T22:55:31;146637.53;;;9.51;100.00
5780;BME280;2916;49.798;10.022;2023-03-13T22:57:59;146632.59;;;9.49;100.00
5780;BME280;2916;49.798;10.022;2023-03-13T23:00:26;146635.06;;;9.50;100.00
5780;BME280;2916;49.798;10.022;2023-03-13T23:02:55;146649.97;;;9.56;100.00
5780;BME280;2916;49.798;10.022;2023-03-13T23:05:22;146622.69;;;9.45;100.00
5780;BME280;2916;49.798;10.022;2023-03-13T23:07:50;146569.34;;;9.23;100.00
5780;BME280;2916;49.798;10.022;2023-03-13T23:10:18;146610.28;;;9.40;100.00
5780;BME280;2916;49.798;10.022;2023-03-13T23:12:45;146630.13;;;9.48;100.00
5780;BME280;2916;49.798;10.022;2023-03-13T23:15:12;146622.69;;;9.45;100.00
5780;BME280;2916;49.798;10.022;2023-03-13T23:17:39;146622.69;;;9.45;100.00
5780;BME280;2916;49.798;10.022;2023-03-13T23:20:10;146620.22;;;9.44;100.00
5780;BME280;2916;49.798;10.022;2023-03-13T23:22:39;146622.69;;;9.45;100.00
5780;BME280;2916;49.798;10.022;2023-03-13T23:25:08;146605.31;;;9.38;100.00
5780;BME280;2916;49.798;10.022;2023-03-13T23:27:35;146611.53;;;9.40;100.00
5780;BME280;2916;49.798;10.022;2023-03-13T23:30:05;146620.22;;;9.44;100.00
5780;BME280;2916;49.798;10.022;2023-03-13T23:32:35;146615.22;;;9.42;100.00
5780;BME280;2916;49.798;10.022;2023-03-13T23:35:03;146606.53;;;9.38;100.00
5780;BME280;2916;49.798;10.022;2023-03-13T23:37:33;146611.53;;;9.40;100.00
5780;BME280;2916;49.798;10.022;2023-03-13T23:40:04;146607.78;;;9.39;100.00
5780;BME280;2916;49.798;10.022;2023-03-13T23:42:33;146616.47;;;9.42;100.00
5780;BME280;2916;49.798;10.022;2023-03-13T23:45:00;146600.38;;;9.36;100.00
5780;BME280;2916;49.798;10.022;2023-03-13T23:47:30;146566.88;;;9.22;100.00
5780;BME280;2916;49.798;10.022;2023-03-13T23:49:58;146597.84;;;9.34;100.00
5780;BME280;2916;49.798;10.022;2023-03-13T23:52:25;146602.84;;;9.37;100.00
5780;BME280;2916;49.798;10.022;2023-03-13T23:54:53;146615.22;;;9.42;100.00
5780;BME280;2916;49.798;10.022;2023-03-13T23:57:20;146609.00;;;9.39;100.00
5780;BME280;2916;49.798;10.022;2023-03-13T23:59:48;146609.00;;;9.39;100.00
